createdAt,value
2023-03-19T00:02:17.951Z,10.85
2023-03-19T00:04:46.903Z,10.55
2023-03-19T00:07:15.855Z,10.48
2023-03-19T00:09:43.872Z,10.13
2023-03-19T00:12:12.077Z,10.55
2023-03-19T00:14:39.536Z,9.75
2023-03-19T00:17:07.248Z,11.32
2023-03-19T00:19:34.947Z,10.25
2023-03-19T00:22:02.624Z,9.75
2023-03-19T00:24:30.316Z,10.20
2023-03-19T00:26:58.004Z,10.35
2023-03-19T00:29:26.028Z,10.30
2023-03-19T00:31:53.411Z,10.30
2023-03-19T00:34:21.555Z,10.48
2023-03-19T00:36:49.616Z,10.80
2023-03-19T00:39:17.442Z,9.70
2023-03-19T00:41:50.384Z,9.23
2023-03-19T00:44:19.222Z,10.52
2023-03-19T00:46:46.929Z,10.07
2023-03-19T00:49:14.395Z,9.32
2023-03-19T00:51:43.958Z,10.75
2023-03-19T00:54:12.685Z,9.73
2023-03-19T00:56:40.240Z,9.55
2023-03-19T00:59:07.810Z,10.35
2023-03-19T01:01:35.717Z,10.77
2023-03-19T01:04:03.725Z,9.68
2023-03-19T01:06:31.291Z,11.32
2023-03-19T01:08:59.024Z,9.35
2023-03-19T01:11:26.511Z,11.10
2023-03-19T01:13:53.967Z,9.77
2023-03-19T01:16:22.472Z,10.60
2023-03-19T01:18:50.124Z,10.35
2023-03-19T01:21:17.777Z,9.50
2023-03-19T01:23:45.766Z,10.20
2023-03-19T01:26:13.608Z,10.02
2023-03-19T01:28:41.944Z,10.23
2023-03-19T01:31:10.284Z,11.30
2023-03-19T01:33:38.561Z,11.27
2023-03-19T01:36:08.035Z,10.13
2023-03-19T01:38:36.266Z,10.02
2023-03-19T01:41:04.756Z,11.20
2023-03-19T01:43:33.113Z,10.25
2023-03-19T01:46:06.757Z,11.02
2023-03-19T01:48:39.865Z,10.18
2023-03-19T01:51:11.163Z,10.35
2023-03-19T01:53:42.118Z,10.13
2023-03-19T01:56:23.758Z,10.25
2023-03-19T01:58:54.719Z,10.68
2023-03-19T02:01:23.281Z,10.37
2023-03-19T02:03:52.701Z,10.77
2023-03-19T02:06:21.569Z,10.32
2023-03-19T02:08:50.142Z,11.00
2023-03-19T02:11:18.474Z,9.82
2023-03-19T02:13:47.166Z,9.65
2023-03-19T02:16:15.962Z,10.48
2023-03-19T02:18:44.340Z,9.57
2023-03-19T02:21:15.018Z,10.38
2023-03-19T02:23:58.594Z,10.75
2023-03-19T02:26:29.355Z,10.05
2023-03-19T02:28:59.342Z,10.45
2023-03-19T02:31:28.043Z,9.70
2023-03-19T02:34:02.524Z,9.63
2023-03-19T02:36:43.296Z,10.98
2023-03-19T02:39:18.902Z,9.35
2023-03-19T02:41:47.251Z,10.32
2023-03-19T02:44:14.862Z,10.63
2023-03-19T02:46:42.524Z,9.93
2023-03-19T02:49:10.209Z,9.30
2023-03-19T02:51:38.943Z,10.40
2023-03-19T02:54:06.577Z,10.27
2023-03-19T02:56:35.345Z,9.75
2023-03-19T02:59:03.107Z,10.05
2023-03-19T03:01:30.512Z,10.65
2023-03-19T03:03:58.257Z,9.75
2023-03-19T03:06:25.718Z,10.23
2023-03-19T03:08:53.133Z,9.88
2023-03-19T03:11:20.741Z,9.85
2023-03-19T03:13:48.417Z,9.80
2023-03-19T03:16:15.900Z,10.25
2023-03-19T03:18:43.614Z,9.70
2023-03-19T03:21:11.749Z,10.60
2023-03-19T03:23:39.093Z,10.25
2023-03-19T03:26:07.380Z,9.63
2023-03-19T03:28:35.528Z,10.35
2023-03-19T03:31:03.718Z,10.40
2023-03-19T03:33:31.715Z,9.30
2023-03-19T03:35:59.237Z,10.02
2023-03-19T03:38:27.041Z,10.05
2023-03-19T03:40:54.729Z,9.85
2023-03-19T03:43:25.445Z,10.50
2023-03-19T03:45:54.528Z,10.02
2023-03-19T03:48:22.838Z,9.85
2023-03-19T03:50:50.309Z,9.73
2023-03-19T03:53:18.345Z,9.60
2023-03-19T03:55:46.120Z,10.07
2023-03-19T03:58:13.694Z,9.40
2023-03-19T04:00:41.200Z,9.60
2023-03-19T04:03:08.906Z,10.18
2023-03-19T04:05:37.717Z,10.13
2023-03-19T04:08:07.171Z,9.80
2023-03-19T04:10:36.811Z,9.93
2023-03-19T04:13:04.321Z,9.43
2023-03-19T04:15:31.992Z,9.40
2023-03-19T04:18:00.405Z,8.63
2023-03-19T04:20:27.837Z,8.95
2023-03-19T04:22:55.206Z,9.82
2023-03-19T04:25:22.924Z,9.80
2023-03-19T04:27:50.468Z,10.10
2023-03-19T04:30:17.996Z,9.52
2023-03-19T04:32:46.306Z,9.07
2023-03-19T04:35:13.748Z,9.35
2023-03-19T04:37:41.997Z,8.15
2023-03-19T04:40:11.034Z,9.70
2023-03-19T04:42:38.863Z,8.57
2023-03-19T04:45:07.614Z,9.02
2023-03-19T04:47:35.600Z,8.73
2023-03-19T04:50:02.946Z,8.35
2023-03-19T04:52:31.156Z,7.95
2023-03-19T04:54:58.929Z,7.90
2023-03-19T04:57:27.070Z,8.70
2023-03-19T04:59:54.642Z,7.93
2023-03-19T05:02:22.422Z,7.90
2023-03-19T05:04:49.924Z,7.57
2023-03-19T05:07:17.567Z,6.90
2023-03-19T05:09:46.386Z,7.87
2023-03-19T05:12:14.539Z,7.93
2023-03-19T05:14:42.516Z,7.28
2023-03-19T05:17:11.311Z,8.35
2023-03-19T05:19:40.208Z,7.18
2023-03-19T05:22:08.508Z,7.85
2023-03-19T05:24:36.208Z,7.93
2023-03-19T05:27:03.889Z,8.13
2023-03-19T05:29:31.525Z,7.82
2023-03-19T05:32:03.092Z,7.28
2023-03-19T05:34:31.433Z,8.20
2023-03-19T05:36:59.178Z,7.68
2023-03-19T05:39:27.012Z,7.37
2023-03-19T05:41:54.888Z,7.65
2023-03-19T05:44:23.336Z,8.13
2023-03-19T05:46:52.260Z,7.68
2023-03-19T05:49:20.725Z,6.70
2023-03-19T05:51:48.419Z,7.37
2023-03-19T05:54:16.258Z,7.05
2023-03-19T05:56:44.457Z,6.57
2023-03-19T05:59:14.114Z,6.57
2023-03-19T06:01:42.082Z,6.80
2023-03-19T06:04:09.898Z,6.50
2023-03-19T06:06:37.833Z,6.95
2023-03-19T06:09:05.402Z,6.80
2023-03-19T06:11:33.355Z,7.10
2023-03-19T06:14:02.441Z,6.62
2023-03-19T06:16:31.115Z,6.20
2023-03-19T06:18:59.183Z,6.12
2023-03-19T06:21:30.537Z,6.07
2023-03-19T06:23:58.218Z,6.65
2023-03-19T06:26:28.345Z,6.20
2023-03-19T06:28:55.952Z,5.80
2023-03-19T06:31:23.491Z,5.95
2023-03-19T06:33:51.452Z,6.22
2023-03-19T06:36:19.205Z,6.10
2023-03-19T06:38:47.821Z,5.87
2023-03-19T06:41:16.358Z,5.50
2023-03-19T06:43:44.213Z,4.97
2023-03-19T06:46:12.133Z,4.80
2023-03-19T06:48:39.913Z,4.82
2023-03-19T06:51:07.442Z,4.55
2023-03-19T06:53:35.479Z,4.57
2023-03-19T06:56:03.615Z,4.40
2023-03-19T06:58:31.326Z,4.18
2023-03-19T07:00:59.954Z,4.50
2023-03-19T07:03:27.669Z,4.53
2023-03-19T07:05:55.192Z,4.47
2023-03-19T07:08:22.753Z,4.50
2023-03-19T07:10:50.498Z,4.90
2023-03-19T07:13:17.889Z,5.28
2023-03-19T07:15:45.356Z,4.03
2023-03-19T07:18:13.018Z,4.68
2023-03-19T07:20:40.348Z,5.28
2023-03-19T07:23:07.741Z,5.00
2023-03-19T07:25:35.474Z,5.30
2023-03-19T07:28:02.867Z,5.35
2023-03-19T07:30:30.737Z,4.85
2023-03-19T07:32:58.450Z,5.45
2023-03-19T07:35:25.986Z,5.03
2023-03-19T07:37:53.425Z,5.00
2023-03-19T07:40:21.480Z,4.62
2023-03-19T07:42:48.985Z,5.28
2023-03-19T07:45:16.471Z,5.37
2023-03-19T07:47:44.152Z,5.30
2023-03-19T07:50:11.542Z,4.55
2023-03-19T07:52:39.064Z,5.28
2023-03-19T07:55:06.966Z,5.03
2023-03-19T07:57:34.290Z,4.22
2023-03-19T08:00:01.886Z,4.25
2023-03-19T08:02:29.653Z,4.40
2023-03-19T08:04:58.512Z,4.40
2023-03-19T08:07:26.207Z,4.70
2023-03-19T08:09:53.549Z,4.85
2023-03-19T08:12:21.222Z,4.47
2023-03-19T08:14:48.581Z,4.25
2023-03-19T08:17:15.997Z,4.25
2023-03-19T08:19:43.792Z,4.43
2023-03-19T08:22:11.669Z,4.35
2023-03-19T08:24:39.088Z,4.00
2023-03-19T08:27:07.802Z,3.90
2023-03-19T08:29:35.326Z,3.87
2023-03-19T08:32:03.048Z,4.25
2023-03-19T08:34:30.920Z,4.32
2023-03-19T08:36:58.257Z,4.47
2023-03-19T08:39:25.882Z,3.70
2023-03-19T08:41:53.523Z,4.10
2023-03-19T08:44:21.467Z,3.92
2023-03-19T08:46:48.868Z,3.95
2023-03-19T08:49:16.726Z,4.20
2023-03-19T08:51:44.646Z,3.75
2023-03-19T08:54:13.749Z,3.95
2023-03-19T08:56:41.421Z,5.30
2023-03-19T08:59:08.754Z,4.18
2023-03-19T09:01:36.727Z,4.70
2023-03-19T09:04:04.505Z,5.60
2023-03-19T09:06:31.969Z,4.28
2023-03-19T09:08:59.341Z,3.92
2023-03-19T09:11:27.145Z,3.83
2023-03-19T09:13:54.508Z,3.92
2023-03-19T09:16:21.985Z,4.55
2023-03-19T09:18:49.670Z,3.75
2023-03-19T09:21:17.100Z,3.65
2023-03-19T09:23:44.475Z,3.83
2023-03-19T09:26:12.143Z,5.00
2023-03-19T09:28:39.660Z,3.97
2023-03-19T09:31:11.531Z,3.75
2023-03-19T09:33:39.279Z,4.12
2023-03-19T09:36:07.156Z,4.32
2023-03-19T09:38:34.714Z,3.95
2023-03-19T09:41:05.116Z,3.72
2023-03-19T09:43:32.972Z,3.80
2023-03-19T09:46:04.341Z,3.78
2023-03-19T09:48:41.015Z,4.47
2023-03-19T09:51:13.909Z,4.37
2023-03-19T09:54:07.401Z,3.80
2023-03-19T09:56:35.404Z,4.40
2023-03-19T09:59:03.316Z,4.35
2023-03-19T10:01:35.637Z,4.35
2023-03-19T10:04:19.544Z,4.32
2023-03-19T10:06:47.065Z,4.28
2023-03-19T10:09:17.718Z,4.57
2023-03-19T10:12:29.460Z,4.12
2023-03-19T10:15:00.345Z,4.22
2023-03-19T10:17:32.617Z,4.37
2023-03-19T10:20:10.574Z,3.90
2023-03-19T10:22:51.130Z,4.65
2023-03-19T10:25:22.616Z,4.05
2023-03-19T10:27:59.188Z,4.10
2023-03-19T10:30:27.243Z,4.35
2023-03-19T10:33:08.946Z,4.05
2023-03-19T10:35:48.884Z,4.40
2023-03-19T10:38:24.125Z,5.28
2023-03-19T10:41:16.872Z,4.37
2023-03-19T10:43:47.642Z,4.45
2023-03-19T10:46:15.754Z,4.78
2023-03-19T10:48:45.709Z,4.30
2023-03-19T10:51:26.854Z,3.97
2023-03-19T10:53:57.816Z,4.22
2023-03-19T10:56:27.266Z,4.03
2023-03-19T10:59:21.251Z,4.28
2023-03-19T11:01:48.784Z,3.72
2023-03-19T11:04:28.721Z,4.22
2023-03-19T11:07:02.054Z,3.70
2023-03-19T11:09:39.341Z,3.47
2023-03-19T11:12:17.424Z,3.60
2023-03-19T11:14:50.913Z,3.72
2023-03-19T11:17:18.233Z,4.20
2023-03-19T11:19:56.698Z,3.50
2023-03-19T11:22:27.736Z,3.83
2023-03-19T11:25:01.932Z,4.30
2023-03-19T11:27:31.975Z,3.80
2023-03-19T11:29:59.736Z,3.62
2023-03-19T11:32:55.691Z,3.83
2023-03-19T11:35:34.881Z,3.85
2023-03-19T11:38:03.541Z,3.78
2023-03-19T11:40:43.007Z,4.30
2023-03-19T11:43:43.289Z,3.37
2023-03-19T11:46:20.412Z,4.00
2023-03-19T11:49:00.811Z,3.72
2023-03-19T11:51:36.124Z,4.15
2023-03-19T11:54:14.357Z,4.00
2023-03-19T11:56:43.309Z,32.33
2023-03-19T12:00:03.710Z,4.60
2023-03-19T12:03:05.118Z,4.62
2023-03-19T12:05:35.478Z,4.40
2023-03-19T12:08:07.633Z,4.20
2023-03-19T12:13:12.972Z,5.07
2023-03-19T12:16:13.655Z,5.53
2023-03-19T12:19:12.100Z,4.30
2023-03-19T12:22:01.159Z,4.78
2023-03-19T12:24:50.808Z,6.97
2023-03-19T12:27:27.972Z,4.70
2023-03-19T12:30:17.925Z,4.57
2023-03-19T12:33:25.304Z,5.30
2023-03-19T12:35:56.048Z,4.87
2023-03-19T12:38:40.404Z,4.53
2023-03-19T12:41:14.352Z,4.62
2023-03-19T12:44:02.068Z,4.32
2023-03-19T12:46:49.744Z,4.15
2023-03-19T12:49:20.966Z,4.45
2023-03-19T12:51:53.257Z,4.25
2023-03-19T12:54:24.476Z,4.80
2023-03-19T12:56:59.597Z,4.15
2023-03-19T12:59:40.348Z,5.18
2023-03-19T13:02:31.652Z,4.80
2023-03-19T13:05:48.879Z,4.32
2023-03-19T13:08:24.649Z,4.57
2023-03-19T13:10:52.256Z,4.90
2023-03-19T13:13:19.487Z,5.30
2023-03-19T13:15:49.647Z,5.10
2023-03-19T13:18:26.505Z,4.53
2023-03-19T13:21:05.764Z,4.10
2023-03-19T13:23:36.461Z,4.53
2023-03-19T13:26:07.915Z,4.15
2023-03-19T13:28:37.615Z,4.37
2023-03-19T13:31:06.032Z,5.03
2023-03-19T13:33:35.177Z,4.55
2023-03-19T13:36:05.443Z,4.50
2023-03-19T13:38:41.255Z,5.32
2023-03-19T13:41:39.972Z,5.12
2023-03-19T13:44:22.385Z,5.03
2023-03-19T13:46:51.373Z,4.55
2023-03-19T13:49:26.544Z,5.20
2023-03-19T13:52:20.585Z,4.75
2023-03-19T13:54:52.929Z,4.72
2023-03-19T13:57:23.717Z,4.40
2023-03-19T13:59:51.676Z,4.25
2023-03-19T14:02:21.936Z,4.65
2023-03-19T14:05:00.361Z,4.00
2023-03-19T14:07:30.982Z,4.55
2023-03-19T14:09:59.961Z,4.45
2023-03-19T14:12:34.297Z,4.32
2023-03-19T14:15:10.988Z,4.80
2023-03-19T14:17:42.141Z,4.90
2023-03-19T14:20:13.284Z,5.07
2023-03-19T14:22:41.130Z,4.15
2023-03-19T14:25:11.623Z,4.30
2023-03-19T14:27:45.022Z,4.45
2023-03-19T14:30:19.980Z,4.45
2023-03-19T14:32:49.080Z,5.20
2023-03-19T14:35:20.210Z,4.60
2023-03-19T14:37:50.365Z,4.13
2023-03-19T14:40:36.150Z,4.62
2023-03-19T14:43:27.260Z,4.87
2023-03-19T14:46:01.384Z,4.32
2023-03-19T14:48:56.330Z,5.03
2023-03-19T14:52:31.690Z,4.60
2023-03-19T14:55:01.644Z,4.68
2023-03-19T14:57:33.881Z,4.40
2023-03-19T15:00:02.846Z,4.70
2023-03-19T15:02:43.648Z,4.65
2023-03-19T15:05:33.648Z,4.40
2023-03-19T15:08:06.663Z,4.75
2023-03-19T15:11:10.742Z,4.95
2023-03-19T15:13:40.248Z,4.22
2023-03-19T15:16:26.197Z,4.70
2023-03-19T15:18:53.844Z,4.00
2023-03-19T15:21:21.573Z,4.40
2023-03-19T15:23:49.210Z,4.35
2023-03-19T15:26:29.422Z,4.43
2023-03-19T15:28:57.964Z,4.28
2023-03-19T15:31:55.031Z,4.75
2023-03-19T15:34:31.619Z,4.97
2023-03-19T15:37:01.050Z,4.97
2023-03-19T15:39:31.606Z,4.70
2023-03-19T15:42:01.593Z,4.70
2023-03-19T15:44:39.976Z,4.85
2023-03-19T15:47:12.375Z,5.15
2023-03-19T15:49:42.712Z,4.40
2023-03-19T15:52:13.184Z,4.75
2023-03-19T15:54:40.928Z,5.12
2023-03-19T15:57:09.491Z,4.80
2023-03-19T15:59:37.683Z,5.00
2023-03-19T16:02:29.170Z,5.80
2023-03-19T16:05:20.428Z,5.70
2023-03-19T16:07:44.679Z,5.65
2023-03-19T16:10:45.570Z,5.95
2023-03-19T16:13:29.805Z,5.22
2023-03-19T16:16:03.363Z,6.62
2023-03-19T16:18:54.496Z,7.18
2023-03-19T16:21:33.778Z,6.45
2023-03-19T16:24:03.457Z,6.03
2023-03-19T16:26:38.425Z,5.47
2023-03-19T16:29:18.421Z,6.10
2023-03-19T16:31:51.821Z,5.80
2023-03-19T16:34:30.746Z,8.73
2023-03-19T16:37:00.630Z,11.50
2023-03-19T16:39:31.161Z,7.80
2023-03-19T16:42:15.646Z,7.15
2023-03-19T16:44:44.473Z,7.03
2023-03-19T16:47:13.770Z,7.50
2023-03-19T16:49:41.171Z,7.30
2023-03-19T16:52:15.828Z,6.97
2023-03-19T16:54:43.628Z,7.18
2023-03-19T16:57:15.862Z,6.37
2023-03-19T16:59:44.045Z,7.28
2023-03-19T17:02:17.352Z,7.57
2023-03-19T17:04:46.409Z,9.07
2023-03-19T17:07:14.117Z,9.32
2023-03-19T17:09:41.657Z,10.10
2023-03-19T17:12:14.586Z,11.10
2023-03-19T17:14:42.806Z,11.27
2023-03-19T17:17:18.480Z,10.48
2023-03-19T17:19:46.734Z,11.15
2023-03-19T17:22:14.502Z,10.40
2023-03-19T17:24:42.367Z,10.48
2023-03-19T17:27:11.092Z,10.25
2023-03-19T17:29:38.769Z,12.00
2023-03-19T17:32:07.272Z,12.52
2023-03-19T17:34:36.801Z,17.15
2023-03-19T17:37:04.557Z,13.88
2023-03-19T17:39:32.836Z,15.70
2023-03-19T17:42:00.653Z,17.02
2023-03-19T17:44:28.133Z,17.02
2023-03-19T17:46:56.149Z,19.48
2023-03-19T17:49:29.972Z,20.62
2023-03-19T17:51:58.592Z,22.87
2023-03-19T17:54:27.157Z,25.58
2023-03-19T17:56:55.477Z,25.60
2023-03-19T17:59:23.454Z,26.77
2023-03-19T18:01:52.134Z,25.45
2023-03-19T18:04:21.408Z,26.08
2023-03-19T18:06:50.828Z,22.77
2023-03-19T18:09:28.241Z,24.70
2023-03-19T18:11:56.451Z,25.73
2023-03-19T18:14:24.014Z,26.02
2023-03-19T18:16:51.466Z,27.35
2023-03-19T18:19:29.755Z,31.50
2023-03-19T18:21:57.404Z,26.15
2023-03-19T18:24:25.126Z,28.87
2023-03-19T18:26:52.454Z,27.48
2023-03-19T18:29:19.798Z,30.08
2023-03-19T18:31:48.579Z,28.00
2023-03-19T18:34:16.442Z,27.40
2023-03-19T18:36:44.248Z,27.67
2023-03-19T18:39:15.848Z,28.08
2023-03-19T18:41:43.767Z,32.42
2023-03-19T18:44:12.301Z,29.80
2023-03-19T18:46:40.670Z,31.10
2023-03-19T18:49:20.904Z,27.85
2023-03-19T18:52:01.542Z,28.75
2023-03-19T18:54:31.128Z,26.50
2023-03-19T18:57:00.222Z,27.75
2023-03-19T18:59:30.853Z,26.75
2023-03-19T19:02:08.833Z,26.10
2023-03-19T19:04:36.572Z,23.17
2023-03-19T19:07:03.905Z,22.40
2023-03-19T19:09:31.244Z,24.75
2023-03-19T19:12:00.779Z,23.50
2023-03-19T19:14:28.438Z,22.27
2023-03-19T19:16:57.034Z,22.67
2023-03-19T19:19:27.600Z,21.90
2023-03-19T19:21:55.181Z,21.50
2023-03-19T19:24:22.575Z,22.52
2023-03-19T19:26:53.321Z,21.25
2023-03-19T19:29:23.872Z,20.30
2023-03-19T19:31:52.887Z,19.30
2023-03-19T19:34:20.633Z,20.25
2023-03-19T19:36:48.337Z,18.95
2023-03-19T19:39:16.781Z,18.90
2023-03-19T19:41:44.433Z,17.60
2023-03-19T19:44:30.143Z,17.70
2023-03-19T19:46:57.845Z,16.83
2023-03-19T19:49:25.308Z,16.67
2023-03-19T19:51:52.750Z,16.23
2023-03-19T19:54:21.693Z,16.62
2023-03-19T19:56:49.810Z,15.75
2023-03-19T19:59:17.303Z,14.73
2023-03-19T20:01:45.093Z,13.25
2023-03-19T20:04:14.294Z,12.32
2023-03-19T20:06:41.869Z,12.95
2023-03-19T20:09:09.295Z,12.60
2023-03-19T20:11:37.381Z,13.60
2023-03-19T20:14:04.726Z,14.10
2023-03-19T20:16:32.101Z,14.65
2023-03-19T20:18:59.799Z,15.60
2023-03-19T20:21:29.225Z,13.52
2023-03-19T20:23:58.761Z,12.98
2023-03-19T20:26:27.009Z,12.98
2023-03-19T20:28:54.576Z,12.65
2023-03-19T20:31:29.828Z,11.70
2023-03-19T20:33:57.728Z,12.45
2023-03-19T20:36:26.597Z,13.48
2023-03-19T20:38:54.178Z,11.65
2023-03-19T20:41:23.726Z,13.32
2023-03-19T20:43:51.478Z,13.68
2023-03-19T20:46:20.388Z,12.32
2023-03-19T20:48:48.753Z,12.27
2023-03-19T20:51:22.700Z,11.95
2023-03-19T20:53:51.508Z,11.98
2023-03-19T20:56:22.081Z,11.75
2023-03-19T20:58:49.755Z,11.57
2023-03-19T21:01:17.961Z,12.35
2023-03-19T21:03:45.492Z,12.43
2023-03-19T21:06:18.513Z,11.95
2023-03-19T21:08:48.114Z,10.57
2023-03-19T21:11:18.050Z,11.32
2023-03-19T21:13:53.113Z,11.07
2023-03-19T21:16:23.065Z,10.98
2023-03-19T21:18:51.809Z,10.75
2023-03-19T21:21:27.546Z,11.23
2023-03-19T21:24:01.438Z,10.88
2023-03-19T21:26:28.819Z,10.90
2023-03-19T21:29:02.874Z,9.77
2023-03-19T21:31:30.366Z,10.57
2023-03-19T21:33:58.667Z,10.00
2023-03-19T21:36:27.524Z,9.82
2023-03-19T21:38:54.897Z,9.25
2023-03-19T21:41:30.177Z,8.88
2023-03-19T21:44:00.349Z,9.73
2023-03-19T21:46:30.601Z,9.10
2023-03-19T21:48:58.617Z,9.27
2023-03-19T21:51:28.504Z,9.13
2023-03-19T21:53:56.134Z,9.25
2023-03-19T21:56:25.685Z,8.60
2023-03-19T21:58:53.393Z,9.25
2023-03-19T22:01:23.924Z,9.75
2023-03-19T22:03:56.564Z,8.95
2023-03-19T22:08:56.154Z,9.15
2023-03-19T22:11:31.965Z,9.68
2023-03-19T22:14:16.376Z,8.50
2023-03-19T22:16:44.745Z,8.85
2023-03-19T22:19:14.423Z,8.70
2023-03-19T22:21:41.908Z,9.52
2023-03-19T22:24:09.284Z,8.10
2023-03-19T22:26:39.227Z,8.77
2023-03-19T22:29:27.076Z,9.57
2023-03-19T22:31:55.968Z,8.57
2023-03-19T22:34:25.686Z,8.20
2023-03-19T22:36:53.444Z,7.87
2023-03-19T22:39:21.180Z,8.73
2023-03-19T22:41:49.053Z,8.60
2023-03-19T22:44:24.466Z,7.72
2023-03-19T22:46:53.302Z,7.37
2023-03-19T22:49:20.714Z,8.20
2023-03-19T22:51:48.185Z,8.43
2023-03-19T22:54:15.926Z,7.37
2023-03-19T22:56:43.312Z,8.13
2023-03-19T22:59:11.268Z,8.50
2023-03-19T23:01:44.454Z,8.73
2023-03-19T23:04:22.403Z,8.43
2023-03-19T23:06:51.550Z,7.75
2023-03-19T23:09:48.003Z,8.32
2023-03-19T23:12:15.655Z,8.52
2023-03-19T23:14:42.996Z,7.78
2023-03-19T23:17:15.198Z,7.95
2023-03-19T23:19:42.855Z,8.13
2023-03-19T23:22:15.039Z,7.90
2023-03-19T23:24:44.619Z,7.95
2023-03-19T23:27:23.165Z,8.15
2023-03-19T23:29:51.116Z,7.97
2023-03-19T23:32:18.599Z,7.95
2023-03-19T23:34:59.202Z,8.10
2023-03-19T23:37:29.020Z,8.65
2023-03-19T23:39:57.878Z,8.70
2023-03-19T23:42:28.107Z,8.00
2023-03-19T23:44:58.448Z,8.70
2023-03-19T23:47:26.363Z,7.80
2023-03-19T23:49:53.805Z,8.20
2023-03-19T23:52:21.864Z,7.97
2023-03-19T23:54:49.265Z,8.15
2023-03-19T23:57:17.150Z,8.07
2023-03-19T23:59:46.307Z,8.57
